Portada
METAR-TAF:

METAR-TAF

Aeroports :

Aeroport Internacional de Tòquio

Tòquio Haneda, Japó

latitud: 35-33N, longitud: 139-47E, altitud: 5 m

Observació

L'informe es va fer fa 32 minuts, a les 22:30 UTC
Vent 13 kt del Nord
Temperatura 7°C
Humitat 87%
Pressió 1025 hPa
Visibilitat 10 km o més
Escasses núvols a una alçada de 1500 ft
Cel ennuvolat a una alçada de 3000 ft
Cel ennuvolat a una alçada de 6000 ft
pluja

METAR: RJTT 042230Z 35013KT 9999 -RA FEW015 BKN030 BKN060 07/05 Q1025 NOSIG RMK 1CU015 6SC030 7SC060 A3028

Hora: 08:02 (23:02 UTC)

Pronòstic

L'informe es va fer fa 5 hores i 57 minuts, a les 17:05 UTC
Pronòstic vàlid del 04 a les 18 UTC al 06 a les 00 UTC
Vent 12 kt del Nord
Visibilitat: 8000 m
Escasses núvols a una alçada de 800 ft
Cel ennuvolat a una alçada de 1500 ft

TAF: RJTT 041705Z 0418/0600 35012KT 8000 FEW008 BKN015

Observacions i pronòstics meteorològics de més de 4000 aeroports (METAR i TAF).

Les estacions disponibles són els punts grocs i vermells al mapa.

Posi el ratolí al punt desitjat per veure el nom de l'estació.

Feu clic per veure les observacions i els pronòstics meteorològics.

Per canviar el mapa: feu clic els botons verds amb una creu de color negre per apropar; al botó verd amb un guió per allunyar la imatge; o en les fletxes verdes per a mapes adjacents.


METAR-TAF: